Time;durP1;ratioP1;P1;durP2;ratioP2;P2;SDS_P1;SDS_P2;PMS_P1;PMS_P2;Temp;Humidity;BMP_temperature;BMP_pressure;BME280_temperature;BME280_humidity;BME280_pressure;Samples;Min_cycle;Max_cycle;Signal;HPM_P1;HPM_P2
2023/11/21 00:00:32;;;;;;;9.77;4.72;;;10.20;99.90;;;;;;4165116;28;20168;-92
2023/11/21 00:02:33;;;;;;;8.43;4.53;;;10.00;99.90;;;;;;4148657;28;20684;-92
2023/11/21 00:04:33;;;;;;;9.18;4.38;;;9.90;99.90;;;;;;4165184;28;20611;-93
2023/11/21 00:06:34;;;;;;;8.57;4.22;;;9.80;99.90;;;;;;4165278;28;20168;-91
2023/11/21 00:08:36;;;;;;;14.80;4.63;;;9.70;99.90;;;;;;4165017;28;20188;-91
2023/11/21 00:10:38;;;;;;;10.40;4.47;;;9.60;99.90;;;;;;4165044;28;20216;-91
2023/11/21 00:12:41;;;;;;;11.55;4.97;;;9.60;99.90;;;;;;4148883;28;20169;-91
2023/11/21 00:14:42;;;;;;;14.80;3.95;;;9.50;99.90;;;;;;4164987;28;20270;-92
2023/11/21 00:16:43;;;;;;;12.43;4.85;;;9.40;99.90;;;;;;4165001;28;20160;-92
2023/11/21 00:18:46;;;;;;;5.68;3.67;;;9.40;99.90;;;;;;4148524;28;20201;-92
2023/11/21 00:20:47;;;;;;;11.30;3.85;;;9.40;99.90;;;;;;4148848;28;20251;-92
2023/11/21 00:22:48;;;;;;;10.40;3.95;;;9.40;99.90;;;;;;4165054;28;20186;-92
2023/11/21 00:24:48;;;;;;;11.10;4.25;;;9.40;99.90;;;;;;4148291;28;20172;-92
2023/11/21 00:26:49;;;;;;;7.40;4.00;;;9.40;99.90;;;;;;4164883;28;20707;-92
2023/11/21 00:28:50;;;;;;;8.05;3.50;;;9.50;99.90;;;;;;4164537;28;20644;-91
2023/11/21 00:30:51;;;;;;;11.88;4.35;;;9.50;99.90;;;;;;4164697;28;20250;-91
2023/11/21 00:32:52;;;;;;;8.40;3.90;;;9.50;99.90;;;;;;4148505;28;20164;-93
2023/11/21 00:34:54;;;;;;;9.90;3.88;;;9.40;99.90;;;;;;4164819;28;20182;-92
2023/11/21 00:36:56;;;;;;;9.07;3.30;;;9.40;99.90;;;;;;4164863;28;20592;-92
2023/11/21 00:38:57;;;;;;;8.52;3.58;;;9.40;99.90;;;;;;4148421;28;20224;-91
2023/11/21 00:40:58;;;;;;;9.60;3.78;;;9.40;99.90;;;;;;4147744;28;20181;-93
2023/11/21 00:42:59;;;;;;;11.65;4.32;;;9.40;99.90;;;;;;4148432;28;20240;-92
2023/11/21 00:45:00;;;;;;;8.07;3.67;;;9.40;99.90;;;;;;4164601;28;20541;-91
2023/11/21 00:47:01;;;;;;;8.77;4.05;;;9.50;99.90;;;;;;4164712;28;20168;-92
2023/11/21 00:49:03;;;;;;;13.73;4.15;;;9.60;99.90;;;;;;4164730;28;20588;-92
2023/11/21 00:51:06;;;;;;;7.32;3.15;;;9.60;99.90;;;;;;4164589;28;20807;-92
2023/11/21 00:53:07;;;;;;;11.77;4.38;;;9.70;99.90;;;;;;4148235;28;20247;-91
2023/11/21 00:55:10;;;;;;;5.30;2.67;;;9.80;99.90;;;;;;4148438;28;20276;-93
2023/11/21 00:57:11;;;;;;;8.80;4.30;;;9.80;99.90;;;;;;4148253;28;20176;-91
2023/11/21 00:59:12;;;;;;;8.38;3.00;;;9.90;99.90;;;;;;4148165;28;20196;-92
2023/11/21 01:01:16;;;;;;;9.98;3.72;;;10.00;99.90;;;;;;4148554;28;20176;-92
2023/11/21 01:03:17;;;;;;;11.32;4.22;;;10.20;99.90;;;;;;4164612;28;20172;-93
2023/11/21 01:05:18;;;;;;;6.53;3.22;;;10.20;99.90;;;;;;4164496;28;20250;-92
2023/11/21 01:07:20;;;;;;;8.35;3.83;;;10.30;99.90;;;;;;4148127;28;20247;-94
2023/11/21 01:09:21;;;;;;;7.72;3.75;;;10.30;99.90;;;;;;4148047;28;20197;-92
2023/11/21 01:11:21;;;;;;;7.22;3.15;;;10.30;99.90;;;;;;4164351;28;20215;-91
2023/11/21 01:13:22;;;;;;;9.98;4.38;;;10.00;99.90;;;;;;4147919;28;20637;-93
2023/11/21 01:15:25;;;;;;;11.27;4.22;;;10.00;99.90;;;;;;4148021;28;20177;-92
2023/11/21 01:17:27;;;;;;;8.35;4.32;;;9.90;99.90;;;;;;4164301;28;20172;-92
2023/11/21 01:19:28;;;;;;;6.78;3.45;;;9.90;99.90;;;;;;4164408;28;20196;-94
2023/11/21 01:21:30;;;;;;;8.25;2.80;;;10.00;99.90;;;;;;4148472;28;20636;-92
2023/11/21 01:23:31;;;;;;;9.77;4.03;;;10.10;99.90;;;;;;4164489;28;20199;-92
2023/11/21 01:25:32;;;;;;;8.50;3.80;;;10.00;99.90;;;;;;4164684;28;20172;-91
2023/11/21 01:27:36;;;;;;;9.77;3.22;;;10.00;99.90;;;;;;4164683;28;20173;-91
2023/11/21 01:29:37;;;;;;;5.50;2.95;;;10.10;99.90;;;;;;4164391;28;20193;-92
2023/11/21 01:31:38;;;;;;;15.75;3.92;;;10.00;99.90;;;;;;4164215;28;20293;-92
2023/11/21 01:33:39;;;;;;;8.60;3.38;;;9.90;99.90;;;;;;4148093;28;20165;-92
2023/11/21 01:35:39;;;;;;;7.45;3.92;;;10.00;99.90;;;;;;4164374;28;20176;-92
2023/11/21 01:37:40;;;;;;;11.32;4.68;;;10.00;99.90;;;;;;4164369;28;20203;-92
2023/11/21 01:39:41;;;;;;;15.60;4.22;;;9.90;99.90;;;;;;4147855;28;20685;-92
2023/11/21 01:41:44;;;;;;;15.98;4.15;;;9.90;99.90;;;;;;4147880;28;20173;-93
2023/11/21 01:43:44;;;;;;;12.50;3.92;;;10.00;99.90;;;;;;4147832;28;20188;-93
2023/11/21 01:45:45;;;;;;;9.10;3.67;;;10.10;99.90;;;;;;4164335;28;20215;-93
2023/11/21 01:47:46;;;;;;;13.65;3.85;;;10.10;99.90;;;;;;4164416;28;20176;-92
2023/11/21 01:49:48;;;;;;;10.07;3.63;;;10.10;99.90;;;;;;4164067;28;20270;-91
2023/11/21 01:51:51;;;;;;;8.00;3.20;;;10.20;99.90;;;;;;4148183;28;20731;-92
2023/11/21 01:53:52;;;;;;;7.85;3.75;;;10.30;99.90;;;;;;4167360;28;20164;-92
2023/11/21 01:55:54;;;;;;;7.88;3.90;;;10.20;99.90;;;;;;4151048;28;20173;-91
2023/11/21 01:57:59;;;;;;;7.15;3.22;;;10.40;99.90;;;;;;4151146;28;20633;-92
2023/11/21 02:00:15;;;;;;;6.32;2.67;;;10.50;99.90;;;;;;4167321;28;20172;-91
2023/11/21 02:02:15;;;;;;;8.98;3.67;;;10.60;99.90;;;;;;4167258;28;20641;-91
2023/11/21 02:04:16;;;;;;;9.25;3.67;;;10.60;99.90;;;;;;4167122;28;20228;-92
2023/11/21 02:06:18;;;;;;;6.65;3.55;;;10.60;99.90;;;;;;4150584;28;20652;-91
2023/11/21 02:08:20;;;;;;;6.57;2.92;;;10.60;99.90;;;;;;4150731;28;20204;-92
2023/11/21 02:10:24;;;;;;;7.53;3.03;;;10.60;99.90;;;;;;4166729;28;20200;-92
2023/11/21 02:12:26;;;;;;;6.35;2.78;;;10.70;99.90;;;;;;4166693;28;20695;-93
2023/11/21 02:14:27;;;;;;;5.90;3.22;;;10.60;99.90;;;;;;4166840;28;20168;-93
2023/11/21 02:16:31;;;;;;;6.88;3.22;;;10.60;99.90;;;;;;4166827;28;20187;-93
2023/11/21 02:18:32;;;;;;;7.13;3.13;;;10.60;99.90;;;;;;4150344;28;20204;-92
2023/11/21 02:20:34;;;;;;;7.65;3.42;;;10.60;99.90;;;;;;4166846;28;20232;-93
2023/11/21 02:22:39;;;;;;;10.73;4.15;;;10.60;99.90;;;;;;4166808;28;20168;-91
2023/11/21 02:24:42;;;;;;;6.53;2.80;;;10.50;99.90;;;;;;4166865;28;20595;-93
2023/11/21 02:26:43;;;;;;;8.45;3.83;;;10.50;99.90;;;;;;4166574;28;20169;-93
2023/11/21 02:28:43;;;;;;;6.28;3.65;;;10.60;99.90;;;;;;4166396;28;20283;-91
2023/11/21 02:30:44;;;;;;;6.05;3.10;;;10.60;99.90;;;;;;4149985;28;20637;-91
2023/11/21 02:32:46;;;;;;;7.50;2.83;;;10.60;99.90;;;;;;4150163;28;20165;-92
2023/11/21 02:34:46;;;;;;;9.60;3.33;;;10.60;99.90;;;;;;4150257;28;20180;-92
2023/11/21 02:36:51;;;;;;;4.22;2.80;;;10.60;99.90;;;;;;4150359;28;20249;-91
2023/11/21 02:38:51;;;;;;;6.55;3.47;;;10.70;99.90;;;;;;4150142;28;20193;-91
2023/11/21 02:40:53;;;;;;;7.88;2.80;;;10.70;99.90;;;;;;4166445;28;20247;-92
2023/11/21 02:42:54;;;;;;;10.20;4.55;;;10.70;99.90;;;;;;4166456;28;20229;-92
2023/11/21 02:44:55;;;;;;;5.88;3.05;;;10.70;99.90;;;;;;4149677;28;20204;-92
2023/11/21 02:46:57;;;;;;;6.38;2.83;;;10.60;99.90;;;;;;4149935;28;20266;-92
2023/11/21 02:48:58;;;;;;;7.22;3.38;;;10.70;99.90;;;;;;4166346;28;20219;-92
2023/11/21 02:50:59;;;;;;;8.02;3.55;;;10.70;99.90;;;;;;4150055;28;20243;-92
2023/11/21 02:53:00;;;;;;;6.28;3.25;;;10.60;99.90;;;;;;4150004;28;20688;-91
2023/11/21 02:55:04;;;;;;;4.63;2.63;;;10.60;99.90;;;;;;4166134;28;20175;-91
2023/11/21 02:57:05;;;;;;;8.13;3.33;;;10.50;99.90;;;;;;4149648;28;20641;-91
2023/11/21 02:59:06;;;;;;;7.82;2.85;;;10.40;99.90;;;;;;4166178;28;20279;-92
2023/11/21 03:01:07;;;;;;;8.88;3.70;;;10.40;99.90;;;;;;4166531;28;20230;-91
2023/11/21 03:03:08;;;;;;;9.45;3.97;;;10.40;99.90;;;;;;4165644;28;20168;-92
2023/11/21 03:05:09;;;;;;;10.15;3.20;;;10.50;99.90;;;;;;4149515;28;20173;-92
2023/11/21 03:07:09;;;;;;;11.50;4.00;;;10.50;99.90;;;;;;4166309;28;20287;-91
2023/11/21 03:09:14;;;;;;;10.75;3.03;;;10.50;99.90;;;;;;4165928;28;20192;-92
2023/11/21 03:11:14;;;;;;;8.20;3.20;;;10.50;99.90;;;;;;4165914;28;20232;-92
2023/11/21 03:13:15;;;;;;;6.05;3.15;;;10.50;99.90;;;;;;4149486;28;20196;-92
2023/11/21 03:15:16;;;;;;;7.95;3.88;;;10.50;99.90;;;;;;4165565;28;20628;-91
2023/11/21 03:17:17;;;;;;;6.60;3.67;;;10.40;99.90;;;;;;4165669;28;20653;-92
2023/11/21 03:19:18;;;;;;;7.53;4.00;;;10.20;99.90;;;;;;4165827;28;20243;-94
2023/11/21 03:21:19;;;;;;;10.55;3.80;;;10.20;99.90;;;;;;4149515;28;20177;-92
2023/11/21 03:23:19;;;;;;;8.65;3.92;;;10.20;99.90;;;;;;4165853;28;20168;-91
2023/11/21 03:25:24;;;;;;;7.22;3.47;;;10.20;99.90;;;;;;4149437;28;20177;-93
2023/11/21 03:27:24;;;;;;;6.88;2.92;;;10.30;99.90;;;;;;4149566;28;20173;-90
2023/11/21 03:29:25;;;;;;;7.68;3.63;;;10.40;99.90;;;;;;4165613;28;20287;-91
2023/11/21 03:31:26;;;;;;;8.02;3.78;;;10.50;99.90;;;;;;4165791;28;20204;-91
2023/11/21 03:33:28;;;;;;;6.50;3.97;;;10.50;99.90;;;;;;4165850;28;20616;-92
2023/11/21 03:35:28;;;;;;;8.80;3.90;;;10.60;99.90;;;;;;4165786;28;20221;-93
2023/11/21 03:37:29;;;;;;;5.38;3.20;;;10.60;99.90;;;;;;4165716;28;20623;-93
2023/11/21 03:39:30;;;;;;;7.30;3.40;;;10.40;99.90;;;;;;4149051;28;20200;-91
2023/11/21 03:41:31;;;;;;;6.43;3.08;;;10.40;99.90;;;;;;4149114;28;20200;-90
2023/11/21 03:43:31;;;;;;;8.23;3.97;;;10.40;99.90;;;;;;4149288;28;20169;-91
2023/11/21 03:45:33;;;;;;;6.63;3.72;;;10.40;99.90;;;;;;4165355;28;20180;-92
2023/11/21 03:47:34;;;;;;;8.32;3.10;;;10.40;99.90;;;;;;4165552;28;20269;-91
2023/11/21 03:49:35;;;;;;;6.20;3.22;;;10.40;99.90;;;;;;4165370;28;20259;-91
2023/11/21 03:51:36;;;;;;;7.32;3.85;;;10.40;99.90;;;;;;4165216;28;20215;-91
2023/11/21 03:53:38;;;;;;;10.98;4.05;;;10.40;99.90;;;;;;4149087;28;20173;-92
2023/11/21 03:55:38;;;;;;;4.60;2.55;;;10.50;99.90;;;;;;4165498;28;20199;-92
2023/11/21 03:57:39;;;;;;;6.90;4.03;;;10.40;99.90;;;;;;4165451;28;20168;-91
2023/11/21 03:59:41;;;;;;;8.95;3.85;;;10.40;99.90;;;;;;4148841;28;20278;-91
2023/11/21 04:01:42;;;;;;;7.70;3.85;;;10.40;99.90;;;;;;4165289;28;20192;-91
2023/11/21 04:03:42;;;;;;;8.38;3.20;;;10.40;99.90;;;;;;4149155;28;20179;-92
2023/11/21 04:05:43;;;;;;;8.68;3.40;;;10.50;99.90;;;;;;4149140;28;20688;-93
2023/11/21 04:07:44;;;;;;;7.78;3.10;;;10.60;99.90;;;;;;4165411;28;20172;-91
2023/11/21 04:09:45;;;;;;;6.18;3.08;;;10.70;99.90;;;;;;4148921;28;20208;-94
2023/11/21 04:11:45;;;;;;;6.72;3.45;;;10.60;99.90;;;;;;4148864;28;20211;-91
2023/11/21 04:13:46;;;;;;;5.95;3.40;;;10.70;99.90;;;;;;4165147;28;20658;-93
2023/11/21 04:15:47;;;;;;;7.68;3.33;;;10.70;99.90;;;;;;4148625;28;20173;-92
2023/11/21 04:17:48;;;;;;;7.85;4.38;;;10.70;99.90;;;;;;4165066;28;20259;-93
2023/11/21 04:19:49;;;;;;;8.80;4.03;;;10.60;99.90;;;;;;4148654;28;20605;-93
2023/11/21 04:21:49;;;;;;;9.68;3.58;;;10.70;99.90;;;;;;4164842;28;20207;-93
2023/11/21 04:23:50;;;;;;;7.53;3.92;;;10.70;99.90;;;;;;4148440;28;20263;-92
2023/11/21 04:25:52;;;;;;;8.48;3.38;;;10.60;99.90;;;;;;4164760;28;20171;-92
2023/11/21 04:27:53;;;;;;;7.35;3.25;;;10.60;99.90;;;;;;4148673;28;20173;-92
2023/11/21 04:29:53;;;;;;;7.75;3.63;;;10.60;99.90;;;;;;4148311;28;20197;-91
2023/11/21 04:31:54;;;;;;;11.15;4.32;;;10.60;99.90;;;;;;4148361;28;20635;-92
2023/11/21 04:33:55;;;;;;;7.90;3.55;;;10.40;99.90;;;;;;4164802;28;20242;-92
2023/11/21 04:35:56;;;;;;;6.03;3.20;;;10.60;99.90;;;;;;4164759;28;20712;-91
2023/11/21 04:37:57;;;;;;;8.60;3.90;;;10.60;99.90;;;;;;4164651;28;20199;-92
2023/11/21 04:39:57;;;;;;;6.45;3.40;;;10.60;99.90;;;;;;4164716;28;20617;-92
2023/11/21 04:41:58;;;;;;;7.60;3.10;;;10.70;99.90;;;;;;4164615;28;20191;-93
2023/11/21 04:44:00;;;;;;;10.23;3.78;;;10.80;99.90;;;;;;4164693;28;20643;-92
2023/11/21 04:46:02;;;;;;;7.55;3.20;;;10.80;99.90;;;;;;4164532;28;20168;-92
2023/11/21 04:48:03;;;;;;;6.75;2.90;;;10.80;99.90;;;;;;4164395;28;20184;-91
2023/11/21 04:50:05;;;;;;;6.38;2.92;;;10.80;99.90;;;;;;4148762;28;20184;-92
2023/11/21 04:52:07;;;;;;;7.45;3.25;;;10.80;99.90;;;;;;4164684;28;20259;-93
2023/11/21 04:54:08;;;;;;;8.15;3.45;;;10.60;99.90;;;;;;4164652;28;20636;-92
2023/11/21 04:56:08;;;;;;;10.63;4.05;;;10.70;99.90;;;;;;4148488;28;20255;-92
2023/11/21 04:58:11;;;;;;;6.50;3.45;;;10.80;99.90;;;;;;4148522;28;20279;-91
2023/11/21 05:00:12;;;;;;;7.53;3.53;;;10.80;99.90;;;;;;4164673;28;20199;-93
2023/11/21 05:02:13;;;;;;;9.98;3.40;;;10.80;99.90;;;;;;4164695;28;20649;-91
2023/11/21 05:04:14;;;;;;;14.65;4.57;;;10.70;99.90;;;;;;4164805;28;20168;-92
2023/11/21 05:06:15;;;;;;;10.48;4.72;;;10.70;99.90;;;;;;4148470;28;20179;-93
2023/11/21 05:08:17;;;;;;;10.73;4.35;;;10.80;99.90;;;;;;4148124;28;20713;-93
2023/11/21 05:10:17;;;;;;;7.97;4.63;;;10.80;99.90;;;;;;4164338;28;20790;-93
2023/11/21 05:12:18;;;;;;;12.43;4.60;;;10.80;99.90;;;;;;4148236;28;20173;-91
2023/11/21 05:14:19;;;;;;;7.07;3.28;;;10.70;99.90;;;;;;4164512;28;20266;-92
2023/11/21 05:16:20;;;;;;;6.95;3.60;;;10.70;99.90;;;;;;4164636;28;20171;-93
2023/11/21 05:18:21;;;;;;;6.90;3.33;;;10.70;99.90;;;;;;4164164;28;20200;-93
2023/11/21 05:20:21;;;;;;;7.70;2.97;;;10.80;99.90;;;;;;4148208;28;20564;-93
2023/11/21 05:22:22;;;;;;;11.00;3.72;;;10.80;99.90;;;;;;4164497;28;20169;-93
2023/11/21 05:24:23;;;;;;;11.15;3.72;;;10.90;99.90;;;;;;4148198;28;20165;-92
2023/11/21 05:26:24;;;;;;;6.78;2.78;;;10.90;99.90;;;;;;4148017;28;20544;-92
2023/11/21 05:28:26;;;;;;;7.55;3.15;;;11.00;99.90;;;;;;4167496;28;20595;-92
2023/11/21 05:30:26;;;;;;;10.60;3.58;;;11.00;99.90;;;;;;4167387;28;20199;-93
2023/11/21 05:32:27;;;;;;;6.47;2.72;;;11.00;99.90;;;;;;4151241;28;20169;-93
2023/11/21 05:34:28;;;;;;;6.82;3.47;;;11.10;99.90;;;;;;4167564;28;20188;-92
2023/11/21 05:36:29;;;;;;;4.82;2.78;;;11.10;99.90;;;;;;4151265;28;20172;-93
2023/11/21 05:38:30;;;;;;;6.32;2.63;;;11.10;99.90;;;;;;4150966;28;20193;-92
2023/11/21 05:40:31;;;;;;;7.70;2.53;;;11.00;99.90;;;;;;4167311;28;20168;-93
2023/11/21 05:42:32;;;;;;;6.93;3.53;;;11.00;99.90;;;;;;4167436;28;20176;-91
2023/11/21 05:44:34;;;;;;;6.28;3.22;;;10.90;99.90;;;;;;4167715;28;20236;-92
2023/11/21 05:46:35;;;;;;;6.13;2.78;;;11.00;99.90;;;;;;4151164;28;20185;-94
2023/11/21 05:48:39;;;;;;;5.07;3.17;;;11.10;99.90;;;;;;4167374;28;20655;-93
2023/11/21 05:50:39;;;;;;;4.78;2.60;;;11.10;99.90;;;;;;4167442;28;20220;-92
2023/11/21 05:52:41;;;;;;;7.20;3.25;;;11.10;99.90;;;;;;4151190;28;20179;-92
2023/11/21 05:54:42;;;;;;;6.53;3.47;;;11.00;99.90;;;;;;4167285;28;20184;-91
2023/11/21 05:56:43;;;;;;;6.70;3.80;;;11.00;99.90;;;;;;4167149;28;20579;-93
2023/11/21 05:58:44;;;;;;;5.47;3.15;;;11.00;99.90;;;;;;4150773;28;20228;-93
2023/11/21 06:00:44;;;;;;;5.95;2.85;;;11.00;99.90;;;;;;4150833;28;20206;-92
2023/11/21 06:02:46;;;;;;;7.00;3.00;;;11.00;99.90;;;;;;4150566;28;20176;-92
2023/11/21 06:04:46;;;;;;;9.85;3.22;;;11.00;99.90;;;;;;4166937;28;20179;-93
2023/11/21 06:06:47;;;;;;;6.60;2.88;;;10.80;99.90;;;;;;4150565;28;20630;-92
2023/11/21 06:08:51;;;;;;;7.85;3.97;;;10.70;99.90;;;;;;4166910;28;20243;-91
2023/11/21 06:10:51;;;;;;;8.25;3.40;;;10.80;99.90;;;;;;4166663;28;20219;-93
2023/11/21 06:12:53;;;;;;;8.85;3.25;;;10.80;99.90;;;;;;4150711;28;20168;-93
2023/11/21 06:14:53;;;;;;;9.15;3.92;;;10.80;99.90;;;;;;4166826;28;20191;-93
2023/11/21 06:16:56;;;;;;;7.53;4.20;;;10.80;99.90;;;;;;4166896;28;20664;-92
2023/11/21 06:18:57;;;;;;;12.50;4.10;;;10.70;99.90;;;;;;4150450;28;20196;-94
2023/11/21 06:21:00;;;;;;;10.23;3.75;;;10.80;99.90;;;;;;4167200;28;20168;-92
2023/11/21 06:23:03;;;;;;;7.13;3.47;;;10.80;99.90;;;;;;4150593;28;20177;-94
2023/11/21 06:25:05;;;;;;;11.45;3.92;;;10.80;99.90;;;;;;4166554;28;20169;-92
2023/11/21 06:27:06;;;;;;;8.13;3.70;;;10.70;99.90;;;;;;4166842;28;20180;-93
2023/11/21 06:29:07;;;;;;;5.85;3.15;;;10.80;99.90;;;;;;4166399;28;20199;-92
2023/11/21 06:31:07;;;;;;;11.38;3.53;;;10.80;99.90;;;;;;4166786;28;20308;-92
2023/11/21 06:33:09;;;;;;;7.25;3.83;;;11.00;99.90;;;;;;4166790;28;20223;-94
2023/11/21 06:35:09;;;;;;;6.25;3.15;;;11.10;99.90;;;;;;4150673;28;20189;-94
2023/11/21 06:37:11;;;;;;;10.70;5.15;;;11.20;99.90;;;;;;4166595;28;20181;-93
2023/11/21 06:39:14;;;;;;;8.60;4.03;;;11.20;99.90;;;;;;4166589;28;20196;-92
2023/11/21 06:41:15;;;;;;;7.78;3.85;;;11.20;99.90;;;;;;4150122;28;20256;-92
2023/11/21 06:43:17;;;;;;;8.02;3.72;;;11.10;99.90;;;;;;4166553;28;20199;-93
2023/11/21 06:45:19;;;;;;;6.93;3.70;;;10.90;99.90;;;;;;4166481;28;20259;-92
2023/11/21 06:47:20;;;;;;;7.75;3.08;;;10.80;99.90;;;;;;4166398;28;20261;-93
2023/11/21 06:49:21;;;;;;;10.15;3.55;;;10.80;99.90;;;;;;4166368;28;20196;-92
2023/11/21 06:51:22;;;;;;;7.55;3.45;;;10.70;99.90;;;;;;4149923;28;20251;-91
2023/11/21 06:53:23;;;;;;;8.45;3.78;;;10.80;99.90;;;;;;4150043;28;20165;-92
2023/11/21 06:55:23;;;;;;;6.28;3.65;;;10.90;99.90;;;;;;4150263;28;20213;-93
2023/11/21 06:57:24;;;;;;;7.40;3.40;;;11.00;99.90;;;;;;4166468;28;20174;-92
2023/11/21 06:59:25;;;;;;;10.02;3.05;;;11.10;99.90;;;;;;4149906;28;20228;-92
2023/11/21 07:01:26;;;;;;;7.38;3.78;;;11.10;99.90;;;;;;4166171;28;20514;-93
2023/11/21 07:03:27;;;;;;;7.78;4.55;;;11.10;99.90;;;;;;4166211;28;20226;-93
2023/11/21 07:05:27;;;;;;;13.98;6.63;;;11.10;99.90;;;;;;4166375;28;20172;-93
2023/11/21 07:07:28;;;;;;;8.52;4.55;;;11.20;99.90;;;;;;4166407;28;20172;-93
2023/11/21 07:09:30;;;;;;;9.05;4.15;;;11.20;99.90;;;;;;4149649;28;20224;-92
2023/11/21 07:11:32;;;;;;;7.47;4.00;;;11.20;99.90;;;;;;4165972;28;20216;-93
2023/11/21 07:13:33;;;;;;;8.48;4.05;;;11.20;99.90;;;;;;4166409;28;20257;-92
2023/11/21 07:15:34;;;;;;;7.43;3.70;;;11.10;99.90;;;;;;4165993;28;20174;-93
2023/11/21 07:17:38;;;;;;;8.13;3.90;;;11.00;99.90;;;;;;4149491;28;20169;-93
2023/11/21 07:19:39;;;;;;;14.25;5.05;;;10.90;99.90;;;;;;4165882;28;20199;-93
2023/11/21 07:21:40;;;;;;;11.00;4.35;;;11.00;99.90;;;;;;4166360;28;20175;-92
2023/11/21 07:23:41;;;;;;;14.85;5.15;;;11.00;99.90;;;;;;4165895;28;20180;-92
2023/11/21 07:25:43;;;;;;;8.23;3.75;;;11.10;99.90;;;;;;4149527;28;20522;-92
2023/11/21 07:27:44;;;;;;;8.82;3.63;;;11.20;99.90;;;;;;4166035;28;20176;-92
2023/11/21 07:29:45;;;;;;;10.27;4.18;;;11.20;99.90;;;;;;4165625;28;20188;-93
2023/11/21 07:31:45;;;;;;;11.55;4.85;;;11.30;99.90;;;;;;4165668;28;20208;-94
2023/11/21 07:33:49;;;;;;;11.50;5.22;;;11.30;99.90;;;;;;4165890;28;20172;-94
2023/11/21 07:35:50;;;;;;;11.93;4.80;;;11.30;99.90;;;;;;4149158;28;20172;-93
2023/11/21 07:37:51;;;;;;;12.55;5.32;;;11.00;99.90;;;;;;4149369;28;20195;-93
2023/11/21 07:39:56;;;;;;;12.50;4.28;;;10.90;99.90;;;;;;4165346;28;20192;-92
2023/11/21 07:41:57;;;;;;;12.73;5.15;;;10.80;99.90;;;;;;4165653;28;20203;-93
2023/11/21 07:43:58;;;;;;;13.10;3.97;;;11.00;99.90;;;;;;4165658;28;20196;-92
2023/11/21 07:45:59;;;;;;;9.85;5.30;;;11.10;99.90;;;;;;4165593;28;20254;-93
2023/11/21 07:48:03;;;;;;;12.38;4.78;;;11.20;99.90;;;;;;4165481;28;20641;-93
2023/11/21 07:50:04;;;;;;;9.98;5.07;;;11.20;99.90;;;;;;4164881;28;20179;-94
2023/11/21 07:52:05;;;;;;;8.75;4.13;;;11.30;99.90;;;;;;4165504;28;20211;-92
2023/11/21 07:54:06;;;;;;;13.63;4.78;;;11.30;99.90;;;;;;4148940;28;20180;-92
2023/11/21 07:56:07;;;;;;;10.63;4.65;;;11.30;99.90;;;;;;4165589;28;20188;-92
2023/11/21 07:58:08;;;;;;;12.65;4.50;;;11.40;99.90;;;;;;4149343;28;20177;-93
2023/11/21 08:00:12;;;;;;;11.40;5.30;;;11.40;99.90;;;;;;4165235;28;20180;-93
2023/11/21 08:02:17;;;;;;;14.00;4.75;;;11.40;99.90;;;;;;4165820;28;20169;-92
2023/11/21 08:04:18;;;;;;;16.50;4.45;;;11.30;99.90;;;;;;4165645;28;20172;-91
2023/11/21 08:06:19;;;;;;;10.68;5.03;;;11.40;99.90;;;;;;4148898;28;20220;-92
2023/11/21 08:08:21;;;;;;;11.93;4.78;;;11.50;99.90;;;;;;4165078;28;20172;-93
2023/11/21 08:10:21;;;;;;;12.38;4.57;;;11.40;99.90;;;;;;4148785;28;20201;-94
2023/11/21 08:12:22;;;;;;;14.00;5.07;;;11.40;99.90;;;;;;4148757;28;20180;-93
2023/11/21 08:14:25;;;;;;;12.38;5.50;;;11.10;99.90;;;;;;4148700;28;20323;-91
2023/11/21 08:16:26;;;;;;;13.18;5.72;;;11.10;99.90;;;;;;4164760;28;20183;-92
2023/11/21 08:18:27;;;;;;;9.32;4.47;;;11.20;99.90;;;;;;4148445;28;20181;-94
2023/11/21 08:20:28;;;;;;;13.20;5.30;;;11.40;99.90;;;;;;4165161;28;20172;-93
2023/11/21 08:22:29;;;;;;;13.38;5.03;;;11.40;99.90;;;;;;4148793;28;20177;-92
2023/11/21 08:24:30;;;;;;;16.58;5.18;;;11.60;99.90;;;;;;4148717;28;20184;-92
2023/11/21 08:26:30;;;;;;;7.57;4.07;;;11.70;99.90;;;;;;4148638;28;20661;-93
2023/11/21 08:28:31;;;;;;;10.43;4.80;;;11.80;99.90;;;;;;4165003;28;20225;-94
2023/11/21 08:30:32;;;;;;;12.15;4.45;;;11.60;99.90;;;;;;4164799;28;20226;-94
2023/11/21 08:32:33;;;;;;;10.88;5.60;;;11.50;99.90;;;;;;4164934;28;20172;-93
2023/11/21 08:34:34;;;;;;;16.20;5.75;;;11.60;99.90;;;;;;4165027;28;20214;-93
2023/11/21 08:36:35;;;;;;;12.82;4.65;;;11.70;99.90;;;;;;4164853;28;20203;-94
2023/11/21 08:38:37;;;;;;;13.18;4.85;;;11.70;99.90;;;;;;4148396;28;20523;-91
2023/11/21 08:40:38;;;;;;;15.48;5.45;;;11.90;99.90;;;;;;4164861;28;20271;-94
2023/11/21 08:42:39;;;;;;;15.30;4.68;;;11.90;99.90;;;;;;4164846;28;20620;-92
2023/11/21 08:44:40;;;;;;;12.20;4.28;;;12.00;99.90;;;;;;4148333;28;20177;-94
2023/11/21 08:46:41;;;;;;;14.98;5.53;;;11.60;99.90;;;;;;4164785;28;20164;-93
2023/11/21 08:48:43;;;;;;;16.58;4.95;;;11.50;99.90;;;;;;4164823;28;20204;-93
2023/11/21 08:50:44;;;;;;;9.13;3.65;;;11.60;99.90;;;;;;4148143;28;20224;-92
2023/11/21 08:52:46;;;;;;;15.73;6.03;;;11.70;99.90;;;;;;4164559;28;20663;-94
2023/11/21 08:54:47;;;;;;;11.05;3.97;;;11.60;99.90;;;;;;4164488;28;20215;-95
2023/11/21 08:56:49;;;;;;;13.98;5.10;;;11.50;99.90;;;;;;4164843;28;20179;-95
2023/11/21 08:58:50;;;;;;;18.63;4.55;;;11.60;99.90;;;;;;4164601;28;20184;-94
2023/11/21 09:00:51;;;;;;;12.10;4.60;;;11.70;99.90;;;;;;4164714;28;20172;-94
2023/11/21 09:02:52;;;;;;;11.38;4.60;;;11.60;99.90;;;;;;4167186;28;20179;-93
2023/11/21 09:04:52;;;;;;;14.43;5.00;;;11.60;99.90;;;;;;4151956;28;20184;-92
2023/11/21 09:06:53;;;;;;;11.02;4.15;;;11.60;99.90;;;;;;4168016;28;20560;-92
2023/11/21 09:08:54;;;;;;;18.52;4.75;;;11.60;99.90;;;;;;4151797;28;20692;-92
2023/11/21 09:10:55;;;;;;;19.55;4.60;;;11.60;99.90;;;;;;4167812;28;20728;-92
2023/11/21 09:12:56;;;;;;;9.88;3.70;;;11.80;99.90;;;;;;4167640;28;20211;-93
2023/11/21 09:14:57;;;;;;;12.80;5.10;;;11.80;99.90;;;;;;4167913;28;20163;-93
2023/11/21 09:16:58;;;;;;;11.07;5.32;;;11.90;99.90;;;;;;4151588;28;20215;-92
2023/11/21 09:18:59;;;;;;;15.38;4.40;;;12.00;99.90;;;;;;4151364;28;20189;-93
2023/11/21 09:21:00;;;;;;;12.98;5.38;;;12.00;99.90;;;;;;4151553;28;20263;-92
2023/11/21 09:23:00;;;;;;;12.05;5.38;;;11.90;99.90;;;;;;4167852;28;20552;-92
2023/11/21 09:25:04;;;;;;;11.65;4.43;;;12.00;99.90;;;;;;4168137;28;20176;-92
2023/11/21 09:27:05;;;;;;;7.05;3.90;;;12.00;99.90;;;;;;4151228;28;20203;-93
2023/11/21 09:29:08;;;;;;;16.00;4.95;;;12.10;99.90;;;;;;4167539;28;20219;-93
2023/11/21 09:31:09;;;;;;;10.98;5.13;;;12.00;99.90;;;;;;4167671;28;20569;-92
2023/11/21 09:33:10;;;;;;;11.95;4.90;;;11.70;99.90;;;;;;4167658;28;20180;-92
2023/11/21 09:35:13;;;;;;;10.93;4.47;;;11.70;99.90;;;;;;4167665;28;20249;-93
2023/11/21 09:37:14;;;;;;;11.02;4.70;;;11.60;99.90;;;;;;4167516;28;20168;-92
2023/11/21 09:39:15;;;;;;;11.32;4.57;;;11.40;99.90;;;;;;4151189;28;20185;-92
2023/11/21 09:41:26;;;;;;;11.43;5.15;;;11.40;99.90;;;;;;4167484;28;20179;-93
2023/11/21 09:43:30;;;;;;;10.65;4.72;;;11.50;99.90;;;;;;4167560;28;20175;-93
2023/11/21 09:45:39;;;;;;;9.65;4.35;;;11.70;99.90;;;;;;4167147;28;20168;-93
2023/11/21 09:47:40;;;;;;;10.98;4.22;;;11.80;99.90;;;;;;4167406;28;20628;-92
2023/11/21 09:49:42;;;;;;;10.27;4.07;;;12.40;99.90;;;;;;4166969;28;20200;-94
2023/11/21 09:51:43;;;;;;;6.88;3.42;;;12.30;99.90;;;;;;4167545;28;20207;-92
2023/11/21 09:53:46;;;;;;;10.38;4.63;;;12.10;99.90;;;;;;4167439;28;20518;-93
2023/11/21 09:55:50;;;;;;;9.82;4.38;;;12.50;99.90;;;;;;4167323;28;20196;-92
2023/11/21 09:57:54;;;;;;;10.93;4.97;;;12.80;99.90;;;;;;4167085;28;20172;-93
2023/11/21 10:00:03;;;;;;;17.90;5.05;;;12.70;99.90;;;;;;4167089;28;20192;-92
2023/11/21 10:02:10;;;;;;;11.00;4.60;;;12.50;99.90;;;;;;4167517;28;20191;-92
2023/11/21 10:04:11;;;;;;;12.77;4.22;;;12.50;99.90;;;;;;4167081;28;20525;-91
2023/11/21 10:06:14;;;;;;;8.65;4.03;;;12.40;99.90;;;;;;4166859;28;20270;-92
2023/11/21 10:08:15;;;;;;;13.63;5.20;;;12.50;99.90;;;;;;4167054;28;20164;-92
2023/11/21 10:10:18;;;;;;;13.25;4.80;;;12.50;99.90;;;;;;4167290;28;20552;-92
2023/11/21 10:12:22;;;;;;;17.45;5.75;;;12.60;99.90;;;;;;4167327;28;20179;-92
2023/11/21 10:14:26;;;;;;;9.32;3.92;;;12.50;99.90;;;;;;4150874;28;20232;-92
2023/11/21 10:16:27;;;;;;;9.18;3.78;;;12.70;99.90;;;;;;4167006;28;20172;-94
2023/11/21 10:18:29;;;;;;;8.40;3.65;;;12.70;99.90;;;;;;4166947;28;20285;-92
2023/11/21 10:20:31;;;;;;;7.82;4.30;;;12.60;99.90;;;;;;4167168;28;20199;-92
2023/11/21 10:22:33;;;;;;;10.45;3.92;;;12.70;99.90;;;;;;4166926;28;20267;-93
2023/11/21 10:24:34;;;;;;;13.45;4.10;;;12.80;99.90;;;;;;4167018;28;20171;-90
2023/11/21 10:26:36;;;;;;;9.52;3.97;;;13.00;99.90;;;;;;4166785;28;20184;-94
2023/11/21 10:28:38;;;;;;;10.93;3.78;;;13.10;99.90;;;;;;4166590;28;20610;-92